sensor_id;sensor_type;location;lat;lon;timestamp;pressure;altitude;pressure_sealevel;temperature;humidity
54882;BME280;40775;51.448;4.742;2023-08-08T00:02:01;101438.63;;;15.37;100.00
54882;BME280;40775;51.448;4.742;2023-08-08T00:04:28;101427.09;;;15.33;100.00
54882;BME280;40775;51.448;4.742;2023-08-08T00:06:55;101440.38;;;15.35;100.00
54882;BME280;40775;51.448;4.742;2023-08-08T00:09:22;101430.63;;;15.34;100.00
54882;BME280;40775;51.448;4.742;2023-08-08T00:11:48;101435.09;;;15.36;100.00
54882;BME280;40775;51.448;4.742;2023-08-08T00:14:15;101441.28;;;15.37;100.00
54882;BME280;40775;51.448;4.742;2023-08-08T00:16:42;101435.97;;;15.35;100.00
54882;BME280;40775;51.448;4.742;2023-08-08T00:19:10;101438.56;;;15.34;100.00
54882;BME280;40775;51.448;4.742;2023-08-08T00:21:37;101439.50;;;15.37;100.00
54882;BME280;40775;51.448;4.742;2023-08-08T00:24:04;101432.44;;;15.36;100.00
54882;BME280;40775;51.448;4.742;2023-08-08T00:26:31;101430.69;;;15.37;100.00
54882;BME280;40775;51.448;4.742;2023-08-08T00:28:58;101425.41;;;15.38;100.00
54882;BME280;40775;51.448;4.742;2023-08-08T00:31:25;101426.22;;;15.33;100.00
54882;BME280;40775;51.448;4.742;2023-08-08T00:33:52;101435.03;;;15.33;100.00
54882;BME280;40775;51.448;4.742;2023-08-08T00:36:19;101432.44;;;15.36;100.00
54882;BME280;40775;51.448;4.742;2023-08-08T00:38:45;101438.63;;;15.38;100.00
54882;BME280;40775;51.448;4.742;2023-08-08T00:41:12;101433.34;;;15.37;100.00
54882;BME280;40775;51.448;4.742;2023-08-08T00:43:39;101418.38;;;15.40;100.00
54882;BME280;40775;51.448;4.742;2023-08-08T00:46:07;101426.28;;;15.39;100.00
54882;BME280;40775;51.448;4.742;2023-08-08T00:48:34;101413.94;;;15.38;100.00
54882;BME280;40775;51.448;4.742;2023-08-08T00:51:01;101423.69;;;15.43;100.00
54882;BME280;40775;51.448;4.742;2023-08-08T00:53:29;101426.31;;;15.42;100.00
54882;BME280;40775;51.448;4.742;2023-08-08T00:55:59;101429.84;;;15.42;100.00
54882;BME280;40775;51.448;4.742;2023-08-08T00:58:27;101421.00;;;15.39;100.00
54882;BME280;40775;51.448;4.742;2023-08-08T01:00:55;101428.06;;;15.40;100.00
54882;BME280;40775;51.448;4.742;2023-08-08T01:03:24;101422.81;;;15.43;100.00
54882;BME280;40775;51.448;4.742;2023-08-08T01:05:59;101420.19;;;15.46;100.00
54882;BME280;40775;51.448;4.742;2023-08-08T01:08:35;101421.97;;;15.49;100.00
54882;BME280;40775;51.448;4.742;2023-08-08T01:11:04;101417.53;;;15.44;100.00
54882;BME280;40775;51.448;4.742;2023-08-08T01:13:32;101424.59;;;15.47;100.00
54882;BME280;40775;51.448;4.742;2023-08-08T01:16:01;101421.06;;;15.46;100.00
54882;BME280;40775;51.448;4.742;2023-08-08T01:18:31;101428.16;;;15.52;100.00
54882;BME280;40775;51.448;4.742;2023-08-08T01:20:59;101420.19;;;15.48;100.00
54882;BME280;40775;51.448;4.742;2023-08-08T01:25:58;101418.41;;;15.45;100.00
54882;BME280;40775;51.448;4.742;2023-08-08T01:28:26;101425.47;;;15.46;100.00
54882;BME280;40775;51.448;4.742;2023-08-08T01:30:53;101434.25;;;15.42;100.00
54882;BME280;40775;51.448;4.742;2023-08-08T01:33:21;101432.50;;;15.42;100.00
54882;BME280;40775;51.448;4.742;2023-08-08T01:35:54;101418.41;;;15.43;100.00
54882;BME280;40775;51.448;4.742;2023-08-08T01:38:36;101425.47;;;15.44;100.00
54882;BME280;40775;51.448;4.742;2023-08-08T01:41:06;101416.63;;;15.44;100.00
54882;BME280;40775;51.448;4.742;2023-08-08T01:43:35;101406.03;;;15.42;100.00
54882;BME280;40775;51.448;4.742;2023-08-08T01:46:04;101400.75;;;15.41;100.00
54882;BME280;40775;51.448;4.742;2023-08-08T01:48:32;101408.66;;;15.39;100.00
54882;BME280;40775;51.448;4.742;2023-08-08T01:50:59;101411.31;;;15.41;100.00
54882;BME280;40775;51.448;4.742;2023-08-08T01:53:26;101413.06;;;15.39;100.00
54882;BME280;40775;51.448;4.742;2023-08-08T01:55:53;101417.50;;;15.41;100.00
54882;BME280;40775;51.448;4.742;2023-08-08T01:58:20;101414.84;;;15.40;100.00
54882;BME280;40775;51.448;4.742;2023-08-08T02:00:47;101405.13;;;15.39;100.00
54882;BME280;40775;51.448;4.742;2023-08-08T02:03:14;101420.16;;;15.43;100.00
54882;BME280;40775;51.448;4.742;2023-08-08T02:05:42;101406.03;;;15.42;100.00
54882;BME280;40775;51.448;4.742;2023-08-08T02:08:09;101406.03;;;15.41;100.00
54882;BME280;40775;51.448;4.742;2023-08-08T02:10:36;101406.88;;;15.38;100.00
54882;BME280;40775;51.448;4.742;2023-08-08T02:13:03;101407.75;;;15.36;100.00
54882;BME280;40775;51.448;4.742;2023-08-08T02:15:30;101406.00;;;15.38;100.00
54882;BME280;40775;51.448;4.742;2023-08-08T02:17:59;101421.84;;;15.35;100.00
54882;BME280;40775;51.448;4.742;2023-08-08T02:20:26;101411.22;;;15.33;100.00
54882;BME280;40775;51.448;4.742;2023-08-08T02:22:53;101397.97;;;15.32;100.00
54882;BME280;40775;51.448;4.742;2023-08-08T02:25:20;101415.63;;;15.31;100.00
54882;BME280;40775;51.448;4.742;2023-08-08T02:27:47;101412.09;;;15.32;100.00
54882;BME280;40775;51.448;4.742;2023-08-08T02:30:14;101403.28;;;15.32;100.00
54882;BME280;40775;51.448;4.742;2023-08-08T02:32:41;101400.69;;;15.35;100.00
54882;BME280;40775;51.448;4.742;2023-08-08T02:35:09;101405.09;;;15.34;100.00
54882;BME280;40775;51.448;4.742;2023-08-08T02:37:36;101404.16;;;15.32;100.00
54882;BME280;40775;51.448;4.742;2023-08-08T02:40:04;101401.53;;;15.34;100.00
54882;BME280;40775;51.448;4.742;2023-08-08T02:42:32;101407.75;;;15.36;100.00
54882;BME280;40775;51.448;4.742;2023-08-08T02:44:59;101406.00;;;15.36;100.00
54882;BME280;40775;51.448;4.742;2023-08-08T02:47:26;101413.94;;;15.38;100.00
54882;BME280;40775;51.448;4.742;2023-08-08T02:49:53;101412.19;;;15.40;100.00
54882;BME280;40775;51.448;4.742;2023-08-08T02:52:20;101399.81;;;15.36;100.00
54882;BME280;40775;51.448;4.742;2023-08-08T02:54:47;101404.22;;;15.35;100.00
54882;BME280;40775;51.448;4.742;2023-08-08T02:57:14;101405.97;;;15.35;100.00
54882;BME280;40775;51.448;4.742;2023-08-08T02:59:41;101404.13;;;15.29;100.00
54882;BME280;40775;51.448;4.742;2023-08-08T03:02:08;101409.41;;;15.26;100.00
54882;BME280;40775;51.448;4.742;2023-08-08T03:04:35;101408.50;;;15.26;100.00
54882;BME280;40775;51.448;4.742;2023-08-08T03:07:02;101403.16;;;15.18;100.00
54882;BME280;40775;51.448;4.742;2023-08-08T03:09:31;101400.50;;;15.17;100.00
54882;BME280;40775;51.448;4.742;2023-08-08T03:11:58;101400.47;;;15.15;100.00
54882;BME280;40775;51.448;4.742;2023-08-08T03:14:25;101402.22;;;15.13;100.00
54882;BME280;40775;51.448;4.742;2023-08-08T03:16:52;101406.59;;;15.11;100.00
54882;BME280;40775;51.448;4.742;2023-08-08T03:19:19;101398.69;;;15.11;100.00
54882;BME280;40775;51.448;4.742;2023-08-08T03:21:46;101393.38;;;15.09;100.00
54882;BME280;40775;51.448;4.742;2023-08-08T03:24:13;101389.81;;;15.07;100.00
54882;BME280;40775;51.448;4.742;2023-08-08T03:26:40;101399.44;;;15.04;100.00
54882;BME280;40775;51.448;4.742;2023-08-08T03:29:07;101392.38;;;15.01;100.00
54882;BME280;40775;51.448;4.742;2023-08-08T03:31:37;101394.94;;;14.92;100.00
54882;BME280;40775;51.448;4.742;2023-08-08T03:34:04;101404.59;;;14.89;100.00
54882;BME280;40775;51.448;4.742;2023-08-08T03:36:31;101394.88;;;14.86;100.00
54882;BME280;40775;51.448;4.742;2023-08-08T03:38:58;101403.72;;;14.90;100.00
54882;BME280;40775;51.448;4.742;2023-08-08T03:41:25;101396.63;;;14.87;100.00
54882;BME280;40775;51.448;4.742;2023-08-08T03:43:52;101410.66;;;14.80;100.00
54882;BME280;40775;51.448;4.742;2023-08-08T03:46:19;101409.69;;;14.75;100.00
54882;BME280;40775;51.448;4.742;2023-08-08T03:48:46;101404.38;;;14.72;100.00
54882;BME280;40775;51.448;4.742;2023-08-08T03:51:13;101397.34;;;14.74;100.00
54882;BME280;40775;51.448;4.742;2023-08-08T03:53:40;101405.28;;;14.75;100.00
54882;BME280;40775;51.448;4.742;2023-08-08T03:56:07;101391.16;;;14.72;100.00
54882;BME280;40775;51.448;4.742;2023-08-08T03:58:34;101406.03;;;14.64;100.00
54882;BME280;40775;51.448;4.742;2023-08-08T04:01:01;101399.03;;;14.66;100.00
54882;BME280;40775;51.448;4.742;2023-08-08T04:03:28;101399.91;;;14.66;100.00
54882;BME280;40775;51.448;4.742;2023-08-08T04:05:55;101393.66;;;14.60;100.00
54882;BME280;40775;51.448;4.742;2023-08-08T04:08:23;101402.47;;;14.59;100.00
54882;BME280;40775;51.448;4.742;2023-08-08T04:10:49;101393.59;;;14.53;100.00
54882;BME280;40775;51.448;4.742;2023-08-08T04:13:16;101385.56;;;14.49;100.00
54882;BME280;40775;51.448;4.742;2023-08-08T04:15:44;101388.16;;;14.44;100.00
54882;BME280;40775;51.448;4.742;2023-08-08T04:18:11;101391.72;;;14.46;100.00
54882;BME280;40775;51.448;4.742;2023-08-08T04:20:39;101389.91;;;14.44;100.00
54882;BME280;40775;51.448;4.742;2023-08-08T04:23:05;101395.13;;;14.41;100.00
54882;BME280;40775;51.448;4.742;2023-08-08T04:25:32;101388.97;;;14.40;100.00
54882;BME280;40775;51.448;4.742;2023-08-08T04:27:59;101396.84;;;14.36;100.00
54882;BME280;40775;51.448;4.742;2023-08-08T04:30:26;101384.53;;;14.39;100.00
54882;BME280;40775;51.448;4.742;2023-08-08T04:32:53;101388.06;;;14.38;100.00
54882;BME280;40775;51.448;4.742;2023-08-08T04:35:20;101390.69;;;14.38;100.00
54882;BME280;40775;51.448;4.742;2023-08-08T04:37:47;101391.59;;;14.39;100.00
54882;BME280;40775;51.448;4.742;2023-08-08T04:40:14;101396.88;;;14.39;100.00
54882;BME280;40775;51.448;4.742;2023-08-08T04:42:42;101395.97;;;14.38;100.00
54882;BME280;40775;51.448;4.742;2023-08-08T04:45:12;101396.84;;;14.37;100.00
54882;BME280;40775;51.448;4.742;2023-08-08T04:47:40;101403.91;;;14.38;100.00
54882;BME280;40775;51.448;4.742;2023-08-08T04:50:10;101399.50;;;14.37;100.00
54882;BME280;40775;51.448;4.742;2023-08-08T04:52:39;101399.47;;;14.36;100.00
54882;BME280;40775;51.448;4.742;2023-08-08T04:55:06;101394.19;;;14.36;100.00
54882;BME280;40775;51.448;4.742;2023-08-08T04:57:33;101396.03;;;14.41;100.00
54882;BME280;40775;51.448;4.742;2023-08-08T05:00:00;101393.34;;;14.38;100.00
54882;BME280;40775;51.448;4.742;2023-08-08T05:02:31;101388.97;;;14.42;100.00
54882;BME280;40775;51.448;4.742;2023-08-08T05:04:59;101406.69;;;14.46;100.00
54882;BME280;40775;51.448;4.742;2023-08-08T05:07:27;101398.78;;;14.47;100.00
54882;BME280;40775;51.448;4.742;2023-08-08T05:09:54;101396.13;;;14.47;100.00
54882;BME280;40775;51.448;4.742;2023-08-08T05:12:21;101406.72;;;14.50;100.00
54882;BME280;40775;51.448;4.742;2023-08-08T05:14:48;101406.78;;;14.52;100.00
54882;BME280;40775;51.448;4.742;2023-08-08T05:17:15;101405.94;;;14.55;100.00
54882;BME280;40775;51.448;4.742;2023-08-08T05:19:42;101398.97;;;14.63;100.00
54882;BME280;40775;51.448;4.742;2023-08-08T05:22:09;101408.69;;;14.64;100.00
54882;BME280;40775;51.448;4.742;2023-08-08T05:24:36;101412.25;;;14.67;100.00
54882;BME280;40775;51.448;4.742;2023-08-08T05:27:03;101407.88;;;14.69;100.00
54882;BME280;40775;51.448;4.742;2023-08-08T05:29:31;101414.94;;;14.72;100.00
54882;BME280;40775;51.448;4.742;2023-08-08T05:31:58;101417.63;;;14.75;100.00
54882;BME280;40775;51.448;4.742;2023-08-08T05:34:25;101422.06;;;14.79;100.00
54882;BME280;40775;51.448;4.742;2023-08-08T05:36:52;101416.03;;;14.88;100.00
54882;BME280;40775;51.448;4.742;2023-08-08T05:39:39;101412.50;;;14.87;100.00
54882;BME280;40775;51.448;4.742;2023-08-08T05:42:07;101413.47;;;14.95;100.00
54882;BME280;40775;51.448;4.742;2023-08-08T05:44:34;101417.06;;;15.03;100.00
54882;BME280;40775;51.448;4.742;2023-08-08T05:47:01;101441.31;;;16.48;100.00
54882;BME280;40775;51.448;4.742;2023-08-08T05:49:29;101432.81;;;17.26;100.00
54882;BME280;40775;51.448;4.742;2023-08-08T05:51:56;101424.94;;;17.83;100.00
54882;BME280;40775;51.448;4.742;2023-08-08T05:54:23;101415.16;;;18.21;100.00
54882;BME280;40775;51.448;4.742;2023-08-08T05:56:50;101411.56;;;18.45;100.00
54882;BME280;40775;51.448;4.742;2023-08-08T05:59:17;101415.06;;;18.67;100.00
54882;BME280;40775;51.448;4.742;2023-08-08T06:01:44;101405.22;;;18.86;100.00
54882;BME280;40775;51.448;4.742;2023-08-08T06:04:12;101401.63;;;18.98;100.00
54882;BME280;40775;51.448;4.742;2023-08-08T06:06:39;101399.78;;;19.07;100.00
54882;BME280;40775;51.448;4.742;2023-08-08T06:09:06;101389.06;;;19.21;100.00
54882;BME280;40775;51.448;4.742;2023-08-08T06:11:35;101387.22;;;19.31;100.00
54882;BME280;40775;51.448;4.742;2023-08-08T06:14:02;101399.56;;;19.45;100.00
54882;BME280;40775;51.448;4.742;2023-08-08T06:16:29;101392.44;;;19.44;100.00
54882;BME280;40775;51.448;4.742;2023-08-08T06:18:56;101393.31;;;19.50;100.00
54882;BME280;40775;51.448;4.742;2023-08-08T06:21:23;101392.38;;;19.58;100.00
54882;BME280;40775;51.448;4.742;2023-08-08T06:23:50;101388.81;;;19.58;100.00
54882;BME280;40775;51.448;4.742;2023-08-08T06:26:19;101398.56;;;19.62;100.00
54882;BME280;40775;51.448;4.742;2023-08-08T06:28:48;101394.09;;;19.65;100.00
54882;BME280;40775;51.448;4.742;2023-08-08T06:31:15;101400.25;;;19.69;100.00
54882;BME280;40775;51.448;4.742;2023-08-08T06:33:42;101390.47;;;19.71;100.00
54882;BME280;40775;51.448;4.742;2023-08-08T06:36:09;101394.03;;;19.73;100.00
54882;BME280;40775;51.448;4.742;2023-08-08T06:38:36;101390.56;;;19.63;100.00
54882;BME280;40775;51.448;4.742;2023-08-08T06:41:03;101396.72;;;19.73;100.00
54882;BME280;40775;51.448;4.742;2023-08-08T06:43:31;101387.78;;;19.77;100.00
54882;BME280;40775;51.448;4.742;2023-08-08T06:45:58;101392.19;;;19.80;100.00
54882;BME280;40775;51.448;4.742;2023-08-08T06:48:25;101387.78;;;19.77;100.00
54882;BME280;40775;51.448;4.742;2023-08-08T06:50:52;101389.53;;;19.81;100.00
54882;BME280;40775;51.448;4.742;2023-08-08T06:53:19;101385.03;;;19.85;100.00
54882;BME280;40775;51.448;4.742;2023-08-08T06:55:46;101387.69;;;19.86;100.00
54882;BME280;40775;51.448;4.742;2023-08-08T06:58:13;101384.13;;;19.87;100.00
54882;BME280;40775;51.448;4.742;2023-08-08T07:00:40;101386.75;;;19.90;100.00
54882;BME280;40775;51.448;4.742;2023-08-08T07:03:07;101383.19;;;19.91;100.00
54882;BME280;40775;51.448;4.742;2023-08-08T07:05:34;101381.41;;;19.93;100.00
54882;BME280;40775;51.448;4.742;2023-08-08T07:08:01;101368.97;;;19.94;100.00
54882;BME280;40775;51.448;4.742;2023-08-08T07:10:28;101380.53;;;19.91;100.00
54882;BME280;40775;51.448;4.742;2023-08-08T07:12:55;101370.81;;;19.87;100.00
54882;BME280;40775;51.448;4.742;2023-08-08T07:15:22;101376.19;;;19.81;100.00
54882;BME280;40775;51.448;4.742;2023-08-08T07:17:50;101373.50;;;19.84;100.00
54882;BME280;40775;51.448;4.742;2023-08-08T07:20:17;101378.78;;;19.87;100.00
54882;BME280;40775;51.448;4.742;2023-08-08T07:22:44;101371.00;;;19.66;100.00
54882;BME280;40775;51.448;4.742;2023-08-08T07:25:11;101374.50;;;19.69;100.00
54882;BME280;40775;51.448;4.742;2023-08-08T07:27:38;101383.28;;;19.84;100.00
54882;BME280;40775;51.448;4.742;2023-08-08T07:30:06;101374.34;;;19.88;100.00
54882;BME280;40775;51.448;4.742;2023-08-08T07:32:34;101380.53;;;19.91;100.00
54882;BME280;40775;51.448;4.742;2023-08-08T07:35:01;101376.97;;;19.92;100.00
54882;BME280;40775;51.448;4.742;2023-08-08T07:37:29;101373.44;;;19.90;100.00
54882;BME280;40775;51.448;4.742;2023-08-08T07:39:56;101370.72;;;19.95;100.00
54882;BME280;40775;51.448;4.742;2023-08-08T07:42:23;101374.25;;;19.97;100.00
54882;BME280;40775;51.448;4.742;2023-08-08T07:44:50;101375.13;;;19.97;100.00
54882;BME280;40775;51.448;4.742;2023-08-08T07:47:17;101371.59;;;19.97;100.00
54882;BME280;40775;51.448;4.742;2023-08-08T07:49:44;101382.28;;;19.92;100.00
54882;BME280;40775;51.448;4.742;2023-08-08T07:52:11;101380.50;;;19.94;100.00
54882;BME280;40775;51.448;4.742;2023-08-08T07:54:38;101382.28;;;19.92;100.00
54882;BME280;40775;51.448;4.742;2023-08-08T07:57:05;101377.84;;;19.93;100.00
54882;BME280;40775;51.448;4.742;2023-08-08T07:59:32;101384.06;;;19.93;100.00
54882;BME280;40775;51.448;4.742;2023-08-08T08:01:59;101377.13;;;19.79;100.00
54882;BME280;40775;51.448;4.742;2023-08-08T08:04:26;101387.69;;;19.86;100.00
54882;BME280;40775;51.448;4.742;2023-08-08T08:06:53;101386.72;;;19.93;100.00
54882;BME280;40775;51.448;4.742;2023-08-08T08:09:20;101381.38;;;19.96;100.00
54882;BME280;40775;51.448;4.742;2023-08-08T08:11:47;101383.13;;;19.97;100.00
54882;BME280;40775;51.448;4.742;2023-08-08T08:14:14;101387.56;;;20.01;100.00
54882;BME280;40775;51.448;4.742;2023-08-08T08:16:41;101382.25;;;20.00;100.00
54882;BME280;40775;51.448;4.742;2023-08-08T08:19:08;101386.66;;;20.02;100.00
54882;BME280;40775;51.448;4.742;2023-08-08T08:21:36;101387.56;;;20.01;100.00
54882;BME280;40775;51.448;4.742;2023-08-08T08:24:03;101393.78;;;20.02;100.00
54882;BME280;40775;51.448;4.742;2023-08-08T08:26:31;101396.41;;;20.03;100.00
54882;BME280;40775;51.448;4.742;2023-08-08T08:28:58;101390.22;;;20.03;100.00
54882;BME280;40775;51.448;4.742;2023-08-08T08:31:25;101384.84;;;20.04;100.00
54882;BME280;40775;51.448;4.742;2023-08-08T08:33:54;101382.19;;;20.04;100.00
54882;BME280;40775;51.448;4.742;2023-08-08T08:36:22;101389.28;;;20.05;100.00
54882;BME280;40775;51.448;4.742;2023-08-08T08:38:49;101391.06;;;20.06;100.00
54882;BME280;40775;51.448;4.742;2023-08-08T08:41:20;101380.41;;;20.06;100.00
54882;BME280;40775;51.448;4.742;2023-08-08T08:43:52;101382.16;;;20.08;100.00
54882;BME280;40775;51.448;4.742;2023-08-08T08:46:21;101395.53;;;20.04;100.00
54882;BME280;40775;51.448;4.742;2023-08-08T08:48:50;101385.78;;;19.97;100.00
54882;BME280;40775;51.448;4.742;2023-08-08T08:51:21;101381.34;;;20.01;100.00
54882;BME280;40775;51.448;4.742;2023-08-08T08:53:48;101385.75;;;20.05;100.00
54882;BME280;40775;51.448;4.742;2023-08-08T08:56:15;101378.63;;;20.05;100.00
54882;BME280;40775;51.448;4.742;2023-08-08T08:58:43;101387.50;;;20.06;100.00
54882;BME280;40775;51.448;4.742;2023-08-08T09:01:10;101371.47;;;20.09;100.00
54882;BME280;40775;51.448;4.742;2023-08-08T09:03:38;101370.63;;;20.05;100.00
54882;BME280;40775;51.448;4.742;2023-08-08T09:06:06;101379.53;;;20.03;100.00
54882;BME280;40775;51.448;4.742;2023-08-08T09:08:33;101378.63;;;20.07;100.00
54882;BME280;40775;51.448;4.742;2023-08-08T09:11:01;101377.72;;;20.06;100.00
54882;BME280;40775;51.448;4.742;2023-08-08T09:13:36;101380.44;;;20.03;100.00
54882;BME280;40775;51.448;4.742;2023-08-08T09:16:08;101391.13;;;19.97;100.00
54882;BME280;40775;51.448;4.742;2023-08-08T09:18:36;101379.59;;;20.00;100.00
54882;BME280;40775;51.448;4.742;2023-08-08T09:21:06;101384.06;;;19.93;100.00
54882;BME280;40775;51.448;4.742;2023-08-08T09:23:33;101383.16;;;19.94;100.00
54882;BME280;40775;51.448;4.742;2023-08-08T09:26:00;101392.88;;;19.98;100.00
54882;BME280;40775;51.448;4.742;2023-08-08T09:28:27;101383.13;;;19.99;100.00
54882;BME280;40775;51.448;4.742;2023-08-08T09:30:54;101384.00;;;19.99;100.00
54882;BME280;40775;51.448;4.742;2023-08-08T09:33:22;101388.44;;;20.02;100.00
54882;BME280;40775;51.448;4.742;2023-08-08T09:35:49;101382.19;;;20.04;100.00
54882;BME280;40775;51.448;4.742;2023-08-08T09:38:16;101388.41;;;20.05;100.00
54882;BME280;40775;51.448;4.742;2023-08-08T09:40:43;101383.03;;;20.08;100.00
54882;BME280;40775;51.448;4.742;2023-08-08T09:43:11;101395.47;;;20.09;100.00
54882;BME280;40775;51.448;4.742;2023-08-08T09:45:39;101383.91;;;20.10;100.00
54882;BME280;40775;51.448;4.742;2023-08-08T09:48:08;101388.34;;;20.10;100.00
54882;BME280;40775;51.448;4.742;2023-08-08T09:50:36;101390.13;;;20.11;100.00
54882;BME280;40775;51.448;4.742;2023-08-08T09:53:03;101393.69;;;20.11;100.00
54882;BME280;40775;51.448;4.742;2023-08-08T09:55:33;101396.22;;;20.22;100.00
54882;BME280;40775;51.448;4.742;2023-08-08T09:58:02;101394.47;;;20.18;100.00
54882;BME280;40775;51.448;4.742;2023-08-08T10:00:31;101390.94;;;20.16;100.00
54882;BME280;40775;51.448;4.742;2023-08-08T10:03:01;101404.19;;;20.23;100.00
54882;BME280;40775;51.448;4.742;2023-08-08T10:05:29;101404.22;;;20.22;100.00
54882;BME280;40775;51.448;4.742;2023-08-08T10:07:56;101411.28;;;20.24;100.00
54882;BME280;40775;51.448;4.742;2023-08-08T10:10:24;101407.72;;;20.28;100.00
54882;BME280;40775;51.448;4.742;2023-08-08T10:12:52;101413.84;;;20.38;100.00
54882;BME280;40775;51.448;4.742;2023-08-08T10:15:19;101396.97;;;20.36;100.00
54882;BME280;40775;51.448;4.742;2023-08-08T10:17:55;101407.56;;;20.44;100.00
54882;BME280;40775;51.448;4.742;2023-08-08T10:20:25;101392.34;;;20.52;100.00
54882;BME280;40775;51.448;4.742;2023-08-08T10:22:53;101390.72;;;20.38;100.00
54882;BME280;40775;51.448;4.742;2023-08-08T10:25:27;101394.34;;;20.31;100.00
54882;BME280;40775;51.448;4.742;2023-08-08T10:28:10;101395.28;;;20.26;100.00
54882;BME280;40775;51.448;4.742;2023-08-08T10:31:01;101393.50;;;20.29;100.00
54882;BME280;40775;51.448;4.742;2023-08-08T10:33:42;101391.75;;;20.24;100.00
54882;BME280;40775;51.448;4.742;2023-08-08T10:36:10;101403.94;;;20.49;100.00
54882;BME280;40775;51.448;4.742;2023-08-08T10:38:47;101404.75;;;20.57;100.00
54882;BME280;40775;51.448;4.742;2023-08-08T10:41:22;101402.66;;;20.81;100.00
54882;BME280;40775;51.448;4.742;2023-08-08T10:43:56;101400.16;;;20.70;100.00
54882;BME280;40775;51.448;4.742;2023-08-08T10:46:32;101397.31;;;20.84;100.00
54882;BME280;40775;51.448;4.742;2023-08-08T10:49:01;101369.75;;;20.83;100.00
54882;BME280;40775;51.448;4.742;2023-08-08T10:54:05;101375.09;;;20.82;100.00
54882;BME280;40775;51.448;4.742;2023-08-08T10:56:35;101367.06;;;20.85;100.00
54882;BME280;40775;51.448;4.742;2023-08-08T10:59:20;101393.47;;;21.03;100.00
54882;BME280;40775;51.448;4.742;2023-08-08T11:01:52;101366.81;;;21.00;100.00
54882;BME280;40775;51.448;4.742;2023-08-08T11:04:22;101370.13;;;21.17;100.00
54882;BME280;40775;51.448;4.742;2023-08-08T11:06:53;101361.25;;;21.17;100.00
54882;BME280;40775;51.448;4.742;2023-08-08T11:09:21;101353.13;;;21.23;100.00
54882;BME280;40775;51.448;4.742;2023-08-08T11:11:48;101358.47;;;21.26;100.00
54882;BME280;40775;51.448;4.742;2023-08-08T11:14:21;101352.38;;;21.15;100.00
54882;BME280;40775;51.448;4.742;2023-08-08T11:16:50;101358.59;;;21.15;100.00
54882;BME280;40775;51.448;4.742;2023-08-08T11:19:19;101356.91;;;21.10;100.00
54882;BME280;40775;51.448;4.742;2023-08-08T11:21:47;101365.06;;;20.97;100.00
54882;BME280;40775;51.448;4.742;2023-08-08T11:24:15;101346.28;;;21.04;100.00
54882;BME280;40775;51.448;4.742;2023-08-08T11:26:44;101349.63;;;21.19;100.00
54882;BME280;40775;51.448;4.742;2023-08-08T11:29:14;101349.00;;;21.02;100.00
54882;BME280;40775;51.448;4.742;2023-08-08T11:31:41;101347.28;;;21.56;100.00
54882;BME280;40775;51.448;4.742;2023-08-08T11:34:08;101336.63;;;21.55;100.00
54882;BME280;40775;51.448;4.742;2023-08-08T11:36:37;101337.69;;;21.45;100.00
54882;BME280;40775;51.448;4.742;2023-08-08T11:39:05;101354.13;;;21.73;100.00
54882;BME280;40775;51.448;4.742;2023-08-08T11:41:37;101348.66;;;21.79;100.00
54882;BME280;40775;51.448;4.742;2023-08-08T11:44:06;101347.91;;;21.72;100.00
54882;BME280;40775;51.448;4.742;2023-08-08T11:46:42;101352.25;;;21.78;100.00
54882;BME280;40775;51.448;4.742;2023-08-08T11:49:10;101349.34;;;21.92;100.00
54882;BME280;40775;51.448;4.742;2023-08-08T11:51:37;101352.97;;;21.87;100.00
54882;BME280;40775;51.448;4.742;2023-08-08T11:54:04;101342.94;;;21.49;100.00
54882;BME280;40775;51.448;4.742;2023-08-08T11:56:34;101345.56;;;22.05;100.00
54882;BME280;40775;51.448;4.742;2023-08-08T11:59:04;101341.41;;;21.85;100.00
54882;BME280;40775;51.448;4.742;2023-08-08T12:01:32;101340.88;;;22.16;100.00
54882;BME280;40775;51.448;4.742;2023-08-08T12:04:05;101338.03;;;22.25;100.00
54882;BME280;40775;51.448;4.742;2023-08-08T12:06:37;101334.34;;;22.31;100.00
54882;BME280;40775;51.448;4.742;2023-08-08T12:09:06;101334.88;;;22.02;98.38
54882;BME280;40775;51.448;4.742;2023-08-08T12:11:36;101333.84;;;22.10;100.00
54882;BME280;40775;51.448;4.742;2023-08-08T12:14:06;101349.72;;;22.18;100.00
54882;BME280;40775;51.448;4.742;2023-08-08T12:16:34;101328.28;;;22.23;100.00
54882;BME280;40775;51.448;4.742;2023-08-08T12:19:04;101331.22;;;22.09;100.00
54882;BME280;40775;51.448;4.742;2023-08-08T12:21:31;101341.78;;;22.15;100.00
54882;BME280;40775;51.448;4.742;2023-08-08T12:24:00;101318.53;;;22.20;100.00
54882;BME280;40775;51.448;4.742;2023-08-08T12:26:27;101330.41;;;22.48;100.00
54882;BME280;40775;51.448;4.742;2023-08-08T12:28:54;101324.63;;;22.68;100.00
54882;BME280;40775;51.448;4.742;2023-08-08T12:31:22;101324.22;;;22.46;100.00
54882;BME280;40775;51.448;4.742;2023-08-08T12:33:49;101311.13;;;22.73;100.00
54882;BME280;40775;51.448;4.742;2023-08-08T12:36:16;101318.56;;;22.60;100.00
54882;BME280;40775;51.448;4.742;2023-08-08T12:38:43;101307.63;;;22.69;100.00
54882;BME280;40775;51.448;4.742;2023-08-08T12:41:11;101303.41;;;22.59;100.00
54882;BME280;40775;51.448;4.742;2023-08-08T12:43:39;101310.69;;;22.52;100.00
54882;BME280;40775;51.448;4.742;2023-08-08T12:46:07;101304.91;;;22.71;100.00
54882;BME280;40775;51.448;4.742;2023-08-08T12:48:34;101309.94;;;22.88;100.00
54882;BME280;40775;51.448;4.742;2023-08-08T12:51:01;101310.56;;;22.99;100.00